This is the latest recevied weather packets stored in our database for station/object EB1HRW. If no packets are shown the sender has not sent any weather packets the latest 10 day(s).
| Time | Temp. | Humidity | Pressure | Rain* | Wind** | Luminosity | Snow |
|---|---|---|---|---|---|---|---|
| 1778151237 | 17.78° C | 51% | 1009.2 hPa | 0 mm | - | - | - |
| 1778150338 | 17.78° C | 52% | 1009.3 hPa | 0 mm | - | - | - |
| 1778149437 | 17.78° C | 57% | 1009.5 hPa | 0 mm | - | - | - |
| 1778148537 | 17.78° C | 55% | 1009.6 hPa | 0 mm | - | - | - |
| 1778147638 | 17.22° C | 58% | 1009.7 hPa | 0 mm | - | - | - |
| 1778146738 | 16.67° C | 59% | 1009.8 hPa | 0 mm | - | - | - |
| 1778145836 | 16.11° C | 59% | 1009.9 hPa | 0 mm | - | - | - |
| 1778144937 | 15.56° C | 63% | 1009.8 hPa | 0 mm | - | - | - |
| 1778144038 | 14.44° C | 67% | 1009.8 hPa | 0 mm | - | - | - |
| 1778143137 | 13.89° C | 69% | 1009.9 hPa | 0 mm | - | - | - |
| 1778142237 | 13.89° C | 69% | 1010.1 hPa | 0 mm | - | - | - |
| 1778141338 | 12.78° C | 74% | 1010.1 hPa | 0 mm | - | - | - |
| 1778140438 | 11.67° C | 79% | 1010.1 hPa | 0 mm | - | - | - |
| 1778139537 | 10.56° C | 82% | 1010 hPa | 0 mm | - | - | - |
| 1778138638 | 10° C | 84% | 1010 hPa | 0 mm | - | - | - |
| 1778137737 | 8.89° C | 85% | 1010.1 hPa | 0 mm | - | - | - |
| 1778136837 | 8.33° C | 85% | 1010.1 hPa | 0 mm | - | - | - |
| 1778135938 | 8.33° C | 85% | 1010.1 hPa | 0 mm | - | - | - |
| 1778135037 | 8.33° C | 85% | 1010.3 hPa | 0 mm | - | - | - |
| 1778134137 | 8.33° C | 85% | 1010 hPa | 0 mm | - | - | - |
| 1778133238 | 8.33° C | 85% | 1010 hPa | 0 mm | - | - | - |
| 1778132337 | 8.33° C | 85% | 1010 hPa | 0 mm | - | - | - |
| 1778131438 | 8.33° C | 85% | 1010 hPa | 0 mm | - | - | - |
| 1778130538 | 8.33° C | 84% | 1009.9 hPa | 0 mm | - | - | - |
| 1778129637 | 8.33° C | 84% | 1009.8 hPa | 0 mm | - | - | - |
* Rain latest hour (hover to see other rain measurements)
** Current wind speed in m/s (hover to see current wind gust speed)